Moberly Airport

About
Name: Moberly Airport
Identifier:  MBY/KMBY
Local Time:  25. Aug 04:10 CDT
Location
Flights per Day
0 flights
Distance: 224km (139mi)
Punctuality
0% (0 flights per day delayed)
Delay Average: 13 minutes
Current Weather
 -1 C (Humidity: 50%)
  5kt (9km/h / 5mph) from 60°
  16km (10 mi.)
 
 METAR KMBY 282355Z AUTO 06005KT 10SM CLR M01/M10 A3013 RMK AO2

Current Flights

Departures
Number Departure To Airline
Arrivals
Number Arrival From Airline

Current Delays

Departures
N/A
Arrivals
N/A

Destinations

Top Destinations
Airport Flights
per week
Seats
per week
  Olathe (JCI) 0 - 0 0
  Columbia (COU) 0 - 0 0
  Provo (PVU) 0 - 0 0

Airlines & Planes

Top Airlines
Airline Flights
per Day
Seats
per Day
  National Airlines 0 -
  Novair 0 -
  Flybe Nordic 0 -
Top Plane Types
Model Flights Seats
Cessna C172 0.0/day - 0